Time;durP1;ratioP1;P1;durP2;ratioP2;P2;SDS_P1;SDS_P2;PMS_P1;PMS_P2;Temp;Humidity;BMP_temperature;BMP_pressure;BME280_temperature;BME280_humidity;BME280_pressure;Samples;Min_cycle;Max_cycle;Signal;HPM_P1;HPM_P2
2022/06/30 00:04:17;;;;;;;5.17;3.72;;;;;;;21.56;69.67;100570.80;5078549;58;1139329;-76
2022/06/30 00:09:22;;;;;;;4.50;4.10;;;;;;;21.48;70.44;100560.15;4985387;58;1139149;-76
2022/06/30 00:14:27;;;;;;;9.53;4.10;;;;;;;21.39;71.15;100550.83;4900385;60;1139390;-76
2022/06/30 00:19:35;;;;;;;4.83;4.42;;;;;;;21.34;72.15;100569.41;4898364;60;1138943;-77
2022/06/30 00:24:40;;;;;;;6.70;4.78;;;;;;;21.37;72.68;100587.04;4900150;59;1139076;-77
2022/06/30 00:29:46;;;;;;;9.50;5.10;;;;;;;21.50;72.74;100584.52;4946453;59;1139545;-77
2022/06/30 00:34:52;;;;;;;7.60;4.67;;;;;;;21.64;73.13;100592.23;4921531;59;1139094;-76
2022/06/30 00:39:58;;;;;;;5.50;4.33;;;;;;;21.71;73.22;100594.47;4929410;59;1139340;-77
2022/06/30 00:45:05;;;;;;;5.20;4.25;;;;;;;21.73;73.50;100605.38;5013861;58;1138990;-77
2022/06/30 00:50:10;;;;;;;9.90;5.55;;;;;;;21.80;73.60;100610.86;5043320;58;1139237;-77
2022/06/30 00:55:18;;;;;;;9.28;5.28;;;;;;;21.84;74.34;100636.90;5045165;57;1138991;-77
2022/06/30 01:00:25;;;;;;;10.65;4.45;;;;;;;21.84;73.84;100644.97;5038163;57;1137269;-76
2022/06/30 01:05:32;;;;;;;6.42;4.70;;;;;;;21.84;74.34;100671.39;5027442;57;1139372;-77
2022/06/30 01:16:01;;;;;;;8.20;5.10;;;;;;;21.79;75.40;100698.03;5034718;58;1139321;-77
2022/06/30 01:21:08;;;;;;;7.47;5.20;;;;;;;21.84;75.59;100693.44;5034093;58;1136817;-77
2022/06/30 01:26:14;;;;;;;7.70;5.50;;;;;;;21.91;75.80;100694.34;5033931;58;1137025;-77
2022/06/30 01:31:20;;;;;;;6.47;5.03;;;;;;;21.96;76.12;100695.46;5034667;58;1136919;-77
2022/06/30 01:36:26;;;;;;;5.97;5.45;;;;;;;21.93;76.48;100699.03;5035228;58;1136960;-76
2022/06/30 01:41:31;;;;;;;11.65;6.05;;;;;;;21.90;77.50;100735.25;5034059;58;1137261;-76
2022/06/30 01:46:37;;;;;;;9.95;6.78;;;;;;;21.78;80.12;100735.41;5039159;57;1138706;-77
2022/06/30 01:51:44;;;;;;;11.30;7.37;;;;;;;21.58;80.98;100723.52;5020301;57;1136993;-78
2022/06/30 01:56:49;;;;;;;13.45;7.08;;;;;;;21.46;81.70;100727.69;4987913;57;1139033;-78
2022/06/30 02:01:55;;;;;;;16.50;8.03;;;;;;;21.34;82.78;100717.39;5044710;57;1138985;-78
2022/06/30 02:07:01;;;;;;;20.17;7.87;;;;;;;21.26;83.54;100689.72;5046240;57;1139157;-78
2022/06/30 02:17:31;;;;;;;23.37;10.33;;;;;;;21.08;85.07;100674.43;5042222;58;1141102;-77
2022/06/30 02:22:38;;;;;;;12.07;7.83;;;;;;;20.94;86.37;100656.72;5046615;57;1143186;-76
2022/06/30 02:27:44;;;;;;;12.33;7.95;;;;;;;20.74;87.54;100638.62;5046488;58;1141094;-76
2022/06/30 02:32:50;;;;;;;14.15;7.87;;;;;;;20.61;88.77;100625.30;5046443;57;1141274;-76
2022/06/30 02:37:57;;;;;;;12.98;7.12;;;;;;;20.50;90.03;100585.91;4984309;58;1141225;-77
2022/06/30 02:43:03;;;;;;;16.02;9.55;;;;;;;20.26;94.23;100538.08;5046489;58;1141085;-78
2022/06/30 02:48:09;;;;;;;12.63;8.30;;;;;;;20.12;93.32;100502.63;5052958;57;1141079;-75
2022/06/30 02:53:15;;;;;;;14.55;10.35;;;;;;;20.01;95.71;100533.94;5079936;58;1141256;-75
2022/06/30 02:58:21;;;;;;;10.40;9.45;;;;;;;20.03;98.78;100582.89;5079835;57;1143205;-75
2022/06/30 03:03:27;;;;;;;25.17;12.73;;;;;;;20.10;99.71;100599.97;5079810;58;1141103;-76
2022/06/30 03:08:33;;;;;;;14.38;9.95;;;;;;;20.22;97.51;100618.67;5065631;58;1143202;-77
2022/06/30 03:13:39;;;;;;;12.82;9.93;;;;;;;20.30;99.00;100650.86;5079895;57;1141051;-77
2022/06/30 03:18:45;;;;;;;16.55;9.80;;;;;;;20.29;100.00;100707.45;5079761;57;1141086;-77
2022/06/30 03:23:51;;;;;;;14.40;10.48;;;;;;;20.29;100.00;100707.45;5079892;58;1143372;-76
2022/06/30 03:28:56;;;;;;;16.62;9.68;;;;;;;20.23;100.00;100725.60;5079702;58;1145521;-77
2022/06/30 03:34:02;;;;;;;16.05;10.05;;;;;;;20.18;100.00;100697.08;5015158;57;1143349;-77
2022/06/30 03:39:07;;;;;;;10.32;8.33;;;;;;;20.15;100.00;100652.64;4925850;59;1145259;-76
2022/06/30 03:44:13;;;;;;;10.80;8.28;;;;;;;20.10;100.00;100626.83;5067013;58;1143172;-77
2022/06/30 03:49:20;;;;;;;11.70;7.33;;;;;;;20.04;100.00;100575.16;5078653;57;1143108;-76
2022/06/30 03:54:25;;;;;;;8.08;6.10;;;;;;;19.94;100.00;100530.28;5078669;57;1143183;-76
2022/06/30 03:59:31;;;;;;;7.45;6.80;;;;;;;19.78;100.00;100458.77;5078638;57;1141075;-76
2022/06/30 04:04:37;;;;;;;10.43;7.87;;;;;;;19.69;100.00;100404.85;5078651;57;1141169;-76
2022/06/30 04:09:43;;;;;;;10.43;8.40;;;;;;;19.65;100.00;100420.47;5066707;58;1143016;-77
2022/06/30 04:14:49;;;;;;;9.58;8.35;;;;;;;19.71;100.00;100443.05;5065708;57;1143436;-76
2022/06/30 04:19:55;;;;;;;10.98;8.50;;;;;;;19.82;100.00;100459.25;5065548;57;1141084;-75
2022/06/30 04:25:01;;;;;;;14.93;8.68;;;;;;;19.88;100.00;100474.11;5065567;57;1143141;-76
2022/06/30 04:30:08;;;;;;;12.23;8.43;;;;;;;19.90;100.00;100437.19;5013289;58;1143107;-74
2022/06/30 04:35:14;;;;;;;9.28;7.55;;;;;;;19.85;100.00;100432.89;4905291;60;1143221;-75
2022/06/30 04:45:45;;;;;;;10.82;9.43;;;;;;;19.83;100.00;100416.64;5070679;58;1143218;-75
2022/06/30 04:50:51;;;;;;;14.83;8.95;;;;;;;19.81;100.00;100411.95;5078418;58;1143187;-76
2022/06/30 04:55:57;;;;;;;11.95;10.58;;;;;;;19.81;100.00;100420.84;5078355;57;1143182;-77
2022/06/30 05:01:03;;;;;;;13.05;10.72;;;;;;;19.82;100.00;100410.94;4983437;59;1145463;-76
2022/06/30 05:06:09;;;;;;;13.20;9.88;;;;;;;19.81;100.00;100430.74;5080641;57;1145498;-77
2022/06/30 05:11:15;;;;;;;10.80;9.48;;;;;;;19.84;100.00;100441.95;5045972;57;1141150;-77
2022/06/30 05:16:20;;;;;;;12.30;8.60;;;;;;;19.89;100.00;100454.81;4975685;59;1141380;-79
2022/06/30 05:21:26;;;;;;;10.88;9.28;;;;;;;19.97;100.00;100462.81;4969018;59;1141117;-77
2022/06/30 05:26:33;;;;;;;12.90;10.05;;;;;;;20.05;100.00;100469.95;5090059;57;1141348;-77
2022/06/30 05:31:40;;;;;;;12.40;9.55;;;;;;;20.09;100.00;100470.75;5041779;57;1143151;-77
2022/06/30 05:36:46;;;;;;;10.00;9.00;;;;;;;20.12;100.00;100464.19;4941544;59;1141061;-77
2022/06/30 05:41:52;;;;;;;12.60;9.33;;;;;;;20.14;100.00;100461.66;5124681;57;1141283;-77
2022/06/30 05:46:58;;;;;;;10.28;8.63;;;;;;;20.16;100.00;100470.87;5122988;57;1141176;-77
2022/06/30 05:52:04;;;;;;;11.22;8.53;;;;;;;20.18;100.00;100472.34;5059602;58;1141097;-77
2022/06/30 05:57:10;;;;;;;10.72;9.25;;;;;;;20.22;100.00;100472.81;5059711;58;1141100;-77
2022/06/30 06:02:16;;;;;;;18.45;9.98;;;;;;;20.27;100.00;100474.45;5059727;58;1141093;-77
2022/06/30 06:07:23;;;;;;;12.88;9.90;;;;;;;20.24;100.00;100481.52;5091804;57;1141052;-76
2022/06/30 06:12:29;;;;;;;12.45;9.15;;;;;;;20.24;100.00;100498.98;5120345;57;1141061;-76
2022/06/30 06:17:47;;;;;;;11.93;8.85;;;;;;;20.30;100.00;100496.92;5021405;58;1141084;-77
2022/06/30 06:22:53;;;;;;;13.18;9.20;;;;;;;20.35;100.00;100483.25;5054103;57;1140988;-77
2022/06/30 06:33:21;;;;;;;14.18;9.35;;;;;;;20.43;100.00;100490.44;5077953;58;1143180;-77
2022/06/30 06:38:28;;;;;;;10.07;8.30;;;;;;;20.50;100.00;100494.05;5066056;58;1143339;-77
2022/06/30 06:43:33;;;;;;;10.78;8.40;;;;;;;20.56;100.00;100489.30;5065831;58;1143182;-77
2022/06/30 06:48:39;;;;;;;15.13;9.15;;;;;;;20.66;100.00;100505.97;5078689;57;1143374;-77
2022/06/30 06:53:45;;;;;;;19.77;9.03;;;;;;;20.69;100.00;100512.33;5078745;58;1143204;-77
2022/06/30 06:58:50;;;;;;;16.50;9.18;;;;;;;20.79;100.00;100505.31;5067894;57;1143272;-77
2022/06/30 07:03:56;;;;;;;10.82;8.60;;;;;;;21.00;100.00;100502.72;5066027;57;1143200;-77
2022/06/30 07:09:04;;;;;;;17.42;9.53;;;;;;;21.24;100.00;100502.94;5055998;58;1143381;-77
2022/06/30 07:14:09;;;;;;;11.03;8.50;;;;;;;21.51;100.00;100496.03;5052653;57;1143225;-77
2022/06/30 07:19:15;;;;;;;10.08;8.73;;;;;;;21.70;100.00;100508.00;4975663;58;1143547;-77
2022/06/30 07:24:21;;;;;;;9.98;8.60;;;;;;;21.86;100.00;100505.57;4872425;60;1143293;-77
2022/06/30 07:29:27;;;;;;;17.42;8.65;;;;;;;21.88;100.00;100514.30;4872441;60;1141243;-77
2022/06/30 07:34:33;;;;;;;14.14;8.60;;;;;;;22.05;100.00;100523.81;4872056;60;1143340;-77
2022/06/30 07:39:39;;;;;;;18.12;8.58;;;;;;;22.32;100.00;100525.70;4900761;59;1143559;-77
2022/06/30 07:44:45;;;;;;;8.63;6.95;;;;;;;22.55;100.00;100529.52;4978857;58;1143214;-77
2022/06/30 07:49:51;;;;;;;8.88;6.97;;;;;;;22.69;100.00;100524.53;5069033;57;1140488;-77
2022/06/30 07:55:14;;;;;;;17.55;6.83;;;;;;;22.85;100.00;100532.03;5069521;57;1141187;-77
2022/06/30 08:00:24;;;;;;;11.33;6.78;;;;;;;22.92;100.00;100532.88;5068023;57;1143217;-77
2022/06/30 08:05:28;;;;;;;9.45;7.22;;;;;;;22.79;100.00;100528.25;5016587;58;1143418;-77
2022/06/30 08:10:34;;;;;;;10.43;6.22;;;;;;;22.89;100.00;100540.88;4971667;58;1141260;-77
2022/06/30 08:15:40;;;;;;;12.07;6.95;;;;;;;23.02;100.00;100540.95;5021052;58;1143151;-76
2022/06/30 08:20:46;;;;;;;7.97;6.37;;;;;;;23.14;99.63;100542.55;4998807;58;1143199;-77
2022/06/30 08:25:52;;;;;;;8.28;5.60;;;;;;;23.23;98.72;100545.39;4999396;58;1139000;-77
2022/06/30 08:30:58;;;;;;;12.78;6.42;;;;;;;23.39;97.67;100538.81;4990993;58;1138989;-76
2022/06/30 08:36:03;;;;;;;7.85;6.12;;;;;;;23.65;96.58;100535.42;4977311;58;1141181;-78
2022/06/30 08:46:34;;;;;;;6.90;6.00;;;;;;;24.05;91.39;100543.91;4987254;58;1138889;-77
2022/06/30 08:51:44;;;;;;;11.68;7.10;;;;;;;24.19;92.10;100536.64;4949573;59;1139076;-77
2022/06/30 08:56:51;;;;;;;64.55;43.68;;;;;;;24.43;92.53;100549.58;4964117;58;1141366;-77
2022/06/30 09:01:57;;;;;;;11.83;8.03;;;;;;;24.44;90.94;100547.16;4942044;58;1143192;-77
2022/06/30 09:07:03;;;;;;;50.95;45.75;;;;;;;24.49;91.06;100541.14;4979944;58;1138954;-77
2022/06/30 09:12:18;;;;;;;11.10;5.35;;;;;;;24.76;92.68;100533.30;4992161;59;1141074;-77
2022/06/30 09:17:28;;;;;;;64.70;57.53;;;;;;;24.97;88.59;100527.35;5015605;58;1139223;-76
2022/06/30 09:22:36;;;;;;;33.15;29.92;;;;;;;25.06;89.23;100526.06;5033548;58;1141130;-77
2022/06/30 09:27:47;;;;;;;6.65;4.95;;;;;;;25.23;89.24;100513.72;5040118;58;1141078;-77
2022/06/30 09:32:56;;;;;;;7.72;5.10;;;;;;;25.47;86.34;100498.63;4985126;58;1137239;-77
2022/06/30 09:38:09;;;;;;;6.45;5.85;;;;;;;25.70;88.04;100496.73;5038826;58;1137023;-78
2022/06/30 09:43:14;;;;;;;5.42;4.92;;;;;;;25.86;83.61;100509.23;5039857;58;1137017;-76
2022/06/30 09:48:20;;;;;;;8.03;4.20;;;;;;;25.88;81.33;100505.78;5044889;58;1136947;-76
2022/06/30 09:53:38;;;;;;;12.35;6.87;;;;;;;25.99;79.38;100490.69;5044941;58;1136956;-77
2022/06/30 09:58:46;;;;;;;5.03;4.62;;;;;;;26.21;81.95;100496.05;5033473;58;1136960;-76
2022/06/30 10:04:01;;;;;;;5.10;4.60;;;;;;;26.42;79.59;100491.31;5042966;58;1139042;-77
2022/06/30 10:09:08;;;;;;;11.60;6.47;;;;;;;26.46;78.22;100486.55;5057981;57;1138960;-77
2022/06/30 10:14:17;;;;;;;9.78;7.65;;;;;;;26.54;78.37;100493.59;4907927;59;1141153;-76
2022/06/30 10:19:23;;;;;;;9.85;8.25;;;;;;;26.78;80.65;100485.08;4872633;58;1139025;-75
2022/06/30 10:24:29;;;;;;;13.85;9.23;;;;;;;26.85;80.08;100478.53;4986210;59;1138992;-76
2022/06/30 10:29:36;;;;;;;14.53;11.30;;;;;;;26.98;78.92;100475.39;4950824;58;1140645;-76
2022/06/30 10:34:46;;;;;;;11.90;6.15;;;;;;;27.17;78.12;100485.19;5071287;57;1143211;-77
2022/06/30 10:40:34;;;;;;;9.38;8.30;;;;;;;27.27;77.05;100489.00;4990433;59;1141088;-77
2022/06/30 10:46:02;;;;;;;7.10;6.53;;;;;;;27.18;76.03;100489.56;5108565;57;1138978;-77
2022/06/30 10:51:12;;;;;;;12.85;7.28;;;;;;;27.08;77.33;100490.61;5076749;58;1139179;-75
2022/06/30 10:56:19;;;;;;;9.43;8.50;;;;;;;27.22;77.83;100483.95;4994210;59;1141108;-75
2022/06/30 11:01:25;;;;;;;9.68;8.70;;;;;;;27.43;77.95;100468.52;5075778;57;1138966;-74
2022/06/30 11:07:01;;;;;;;12.03;8.45;;;;;;;27.51;75.92;100462.75;5060937;57;1139093;-77
2022/06/30 11:12:07;;;;;;;9.20;8.23;;;;;;;27.30;76.51;100465.47;4857912;59;1141102;-75
2022/06/30 11:17:18;;;;;;;9.38;8.48;;;;;;;27.36;78.77;100452.84;4974970;59;1138942;-73
2022/06/30 11:22:26;;;;;;;9.73;8.93;;;;;;;27.63;77.14;100448.73;4971301;59;1139017;-77
2022/06/30 11:27:36;;;;;;;11.48;8.58;;;;;;;27.78;76.18;100456.44;4988464;59;1136931;-71
2022/06/30 11:32:42;;;;;;;14.78;8.50;;;;;;;27.77;77.23;100446.63;4914928;59;1139117;-74
2022/06/30 11:37:51;;;;;;;9.40;8.10;;;;;;;27.72;77.47;100435.62;4921800;59;1139033;-74
2022/06/30 11:42:56;;;;;;;10.28;8.50;;;;;;;27.69;76.98;100440.69;4927209;59;1137003;-73
2022/06/30 11:48:03;;;;;;;9.65;8.65;;;;;;;27.64;77.41;100434.08;4914326;60;1138952;-79
2022/06/30 11:53:09;;;;;;;9.18;8.38;;;;;;;27.71;77.30;100429.05;4917256;60;1137076;-76
2022/06/30 11:58:15;;;;;;;14.03;8.08;;;;;;;27.62;76.12;100430.77;4869019;59;1136930;-77
2022/06/30 12:03:21;;;;;;;9.20;8.30;;;;;;;27.57;76.58;100436.59;4891842;60;1139121;-76
2022/06/30 12:08:28;;;;;;;8.58;7.87;;;;;;;27.71;77.75;100435.84;4892567;60;1137148;-76
2022/06/30 12:13:34;;;;;;;10.28;7.90;;;;;;;27.81;77.04;100432.02;4892084;58;1136987;-77
2022/06/30 12:18:41;;;;;;;8.80;8.05;;;;;;;27.76;77.02;100430.55;4888249;60;1139062;-77
2022/06/30 12:23:48;;;;;;;32.73;9.18;;;;;;;27.62;76.69;100431.30;4888070;59;1136930;-77
2022/06/30 12:28:58;;;;;;;7.95;7.20;;;;;;;27.65;77.59;100419.97;4891444;59;1138989;-76
2022/06/30 12:34:04;;;;;;;11.63;9.03;;;;;;;27.71;77.21;100422.26;4897419;59;1136881;-77
2022/06/30 12:39:16;;;;;;;11.25;8.38;;;;;;;27.71;76.44;100418.19;4933386;58;1139116;-77
2022/06/30 12:44:31;;;;;;;8.40;7.70;;;;;;;27.84;77.91;100409.28;4998379;58;1137374;-78
2022/06/30 12:49:39;;;;;;;10.17;9.10;;;;;;;28.10;78.20;100404.47;5042973;58;1139240;-76
2022/06/30 12:54:57;;;;;;;13.60;9.20;;;;;;;28.22;77.62;100402.59;5043012;58;1141034;-77
2022/06/30 13:00:04;;;;;;;9.93;7.58;;;;;;;28.19;76.69;100400.34;4961047;58;1141279;-78
2022/06/30 13:05:15;;;;;;;11.15;8.63;;;;;;;28.18;77.43;100396.77;4948698;59;1139106;-79
2022/06/30 13:11:04;;;;;;;10.28;8.75;;;;;;;28.20;76.19;100401.47;4867855;59;1141101;-78
2022/06/30 13:15:28;;;;;;;12.25;9.05;;;;;;;28.09;76.56;100396.84;4877076;60;1141088;-77
2022/06/30 13:20:34;;;;;;;9.55;8.75;;;;;;;28.22;77.15;100384.92;4960626;59;1141109;-77
2022/06/30 13:25:40;;;;;;;14.25;9.00;;;;;;;28.45;76.30;100394.40;4961418;59;1139445;-77
2022/06/30 13:31:03;;;;;;;10.95;9.20;;;;;;;28.56;76.90;100393.57;4961475;59;1140909;-77
2022/06/30 13:36:11;;;;;;;9.90;8.23;;;;;;;28.65;76.33;100396.20;4961506;59;1141083;-77
2022/06/30 13:41:17;;;;;;;15.93;7.75;;;;;;;28.77;75.94;100396.69;4975355;58;1139170;-77
2022/06/30 13:46:23;;;;;;;12.65;9.68;;;;;;;28.93;75.31;100386.44;4975976;59;1141086;-77
2022/06/30 13:51:29;;;;;;;8.95;8.20;;;;;;;29.09;74.53;100380.21;4984524;58;1141094;-77
2022/06/30 13:56:35;;;;;;;12.18;9.93;;;;;;;29.22;74.81;100375.82;4984898;58;1139288;-76
2022/06/30 14:01:41;;;;;;;9.55;8.68;;;;;;;29.34;74.41;100368.94;4984964;58;1141316;-77
2022/06/30 14:06:47;;;;;;;12.20;8.60;;;;;;;29.25;74.02;100373.15;4985065;58;1138898;-77
2022/06/30 14:11:53;;;;;;;14.30;8.13;;;;;;;29.30;72.80;100359.63;4988729;59;1141095;-77
2022/06/30 14:16:58;;;;;;;10.18;8.95;;;;;;;29.42;74.26;100361.77;4993331;59;1141142;-77
2022/06/30 14:22:04;;;;;;;11.10;8.80;;;;;;;29.45;71.53;100359.92;4989343;59;1141253;-77
2022/06/30 14:27:10;;;;;;;9.28;8.48;;;;;;;29.45;72.53;100358.56;4949016;59;1141082;-77
2022/06/30 14:32:15;;;;;;;10.78;9.38;;;;;;;29.37;72.90;100357.55;4919150;59;1139318;-77
2022/06/30 14:37:23;;;;;;;9.65;8.85;;;;;;;29.34;72.29;100361.59;4927156;59;1141375;-77
2022/06/30 14:42:44;;;;;;;10.40;9.33;;;;;;;29.26;72.96;100359.28;5010085;57;1138991;-77
2022/06/30 14:47:54;;;;;;;9.65;8.33;;;;;;;29.16;72.36;100359.65;5052104;58;1141236;-77
2022/06/30 14:53:00;;;;;;;13.13;8.68;;;;;;;29.31;73.87;100354.47;4975713;59;1139012;-77
2022/06/30 14:58:05;;;;;;;9.33;8.53;;;;;;;29.45;72.67;100350.39;4989561;58;1141123;-77
2022/06/30 15:03:11;;;;;;;14.25;9.53;;;;;;;29.54;72.42;100348.89;4980053;58;1139313;-76
2022/06/30 15:08:17;;;;;;;10.35;9.43;;;;;;;29.48;71.73;100341.72;5044072;57;1139345;-76
2022/06/30 15:13:23;;;;;;;12.70;9.45;;;;;;;29.46;71.60;100347.12;5011722;58;1139192;-77
2022/06/30 15:18:28;;;;;;;10.80;9.70;;;;;;;29.54;72.01;100335.80;5066637;58;1138988;-77
2022/06/30 15:28:57;;;;;;;11.22;9.23;;;;;;;29.85;72.04;100313.92;5067737;58;1139074;-77
2022/06/30 15:34:03;;;;;;;10.45;9.38;;;;;;;29.95;70.62;100301.78;5051073;57;1139386;-77
2022/06/30 15:39:09;;;;;;;9.50;8.65;;;;;;;29.90;70.02;100300.38;5046165;57;1139232;-77
2022/06/30 15:44:15;;;;;;;10.35;9.25;;;;;;;29.97;71.02;100306.48;5050432;57;1136952;-76
2022/06/30 15:49:21;;;;;;;13.33;9.77;;;;;;;30.05;71.80;100310.98;4985417;59;1139067;-77
2022/06/30 15:54:27;;;;;;;15.75;9.78;;;;;;;30.06;70.50;100314.00;4982909;58;1139061;-77
2022/06/30 15:59:33;;;;;;;10.13;9.23;;;;;;;30.07;69.74;100314.29;5086860;57;1138359;-77
2022/06/30 16:04:38;;;;;;;9.30;8.40;;;;;;;30.10;68.29;100313.50;5099606;57;1139185;-77
2022/06/30 16:09:44;;;;;;;11.80;9.00;;;;;;;30.05;68.18;100311.52;5107520;57;1136934;-80
2022/06/30 16:14:51;;;;;;;8.35;7.65;;;;;;;29.97;68.95;100302.39;5065152;58;1139132;-77
2022/06/30 16:19:57;;;;;;;8.95;8.15;;;;;;;29.87;67.68;100298.97;5042584;58;1137226;-77
2022/06/30 16:25:03;;;;;;;11.48;9.15;;;;;;;29.71;67.98;100299.28;5040505;58;1135174;-77
2022/06/30 16:30:14;;;;;;;10.20;8.45;;;;;;;29.56;67.77;100304.50;5041439;58;1137207;-77
2022/06/30 16:35:16;;;;;;;10.08;9.05;;;;;;;29.53;68.17;100305.53;5039305;58;1141261;-77
2022/06/30 16:40:24;;;;;;;9.13;8.33;;;;;;;29.57;68.71;100302.06;5034873;58;1141258;-77
2022/06/30 16:45:30;;;;;;;9.18;8.38;;;;;;;29.57;68.32;100314.87;5048520;58;1139090;-77
2022/06/30 16:50:36;;;;;;;9.23;8.25;;;;;;;29.51;68.57;100309.86;5034645;57;1139449;-77
2022/06/30 16:55:42;;;;;;;10.20;8.05;;;;;;;29.39;68.56;100305.04;5104744;57;1139017;-77
2022/06/30 17:00:48;;;;;;;14.25;8.88;;;;;;;29.32;69.17;100312.53;5105981;57;1141441;-77
2022/06/30 17:05:54;;;;;;;10.58;9.70;;;;;;;29.23;69.48;100305.83;5084533;57;1141079;-77
2022/06/30 17:11:19;;;;;;;10.25;9.43;;;;;;;29.22;70.13;100311.81;5034858;57;1141115;-77
2022/06/30 17:16:24;;;;;;;12.98;10.82;;;;;;;29.13;70.14;100309.74;4951767;58;1141503;-76
2022/06/30 17:21:30;;;;;;;9.73;8.38;;;;;;;28.97;71.08;100319.00;4962072;58;1143542;-76
2022/06/30 17:26:37;;;;;;;8.43;7.70;;;;;;;28.53;72.28;100296.62;4985745;58;1139019;-76
2022/06/30 17:31:43;;;;;;;8.48;7.78;;;;;;;28.53;72.28;100296.62;4909905;58;1139136;-77
2022/06/30 17:36:48;;;;;;;12.73;7.75;;;;;;;28.40;72.05;100301.81;4960596;58;1139070;-77
2022/06/30 17:41:55;;;;;;;10.15;7.80;;;;;;;28.29;72.40;100304.83;5036856;57;1140463;-77
2022/06/30 17:47:01;;;;;;;7.85;7.25;;;;;;;28.23;72.65;100307.70;5041194;58;1141116;-78
2022/06/30 17:52:08;;;;;;;9.88;7.75;;;;;;;28.19;72.85;100307.87;5088742;57;1139088;-78
2022/06/30 17:57:14;;;;;;;8.45;7.65;;;;;;;28.15;72.65;100310.74;5102178;57;1139064;-77
2022/06/30 18:02:20;;;;;;;8.68;7.83;;;;;;;28.16;72.54;100309.68;5105752;57;1139281;-77
2022/06/30 18:12:51;;;;;;;9.23;7.22;;;;;;;28.00;73.13;100302.55;5020713;57;1139361;-77
2022/06/30 18:17:56;;;;;;;8.15;7.47;;;;;;;27.93;73.63;100295.60;5053722;57;1139258;-77
2022/06/30 18:23:02;;;;;;;8.13;7.22;;;;;;;27.84;73.95;100288.33;5033989;58;1139120;-77
2022/06/30 18:28:07;;;;;;;9.55;7.33;;;;;;;27.78;74.26;100285.75;5035509;58;1139389;-77
2022/06/30 18:33:15;;;;;;;9.75;8.95;;;;;;;27.71;74.62;100289.10;5046135;58;1138906;-78
2022/06/30 18:38:21;;;;;;;19.05;12.00;;;;;;;27.68;74.91;100289.57;5033223;58;1138973;-77
2022/06/30 18:43:34;;;;;;;25.88;14.23;;;;;;;27.71;75.49;100285.03;5043552;58;1143247;-77
2022/06/30 18:48:35;;;;;;;31.40;16.07;;;;;;;27.78;75.81;100292.01;5071584;57;1143160;-77
2022/06/30 18:53:41;;;;;;;26.52;16.95;;;;;;;27.72;76.68;100295.66;5048423;57;1143413;-78
2022/06/30 18:58:47;;;;;;;34.80;21.37;;;;;;;27.65;77.24;100294.41;5042609;58;1143803;-78
2022/06/30 19:03:53;;;;;;;35.52;21.87;;;;;;;27.66;77.85;100296.59;5020982;58;1143069;-77
2022/06/30 19:08:58;;;;;;;31.37;21.10;;;;;;;27.68;78.53;100303.16;5006696;58;1143263;-78
2022/06/30 19:14:04;;;;;;;31.05;19.32;;;;;;;27.72;79.03;100305.70;5031635;58;1141231;-78
2022/06/30 19:19:10;;;;;;;34.73;17.37;;;;;;;27.63;78.90;100312.86;5032413;58;1141288;-78
2022/06/30 19:24:16;;;;;;;28.20;16.52;;;;;;;27.30;79.11;100324.25;5050421;58;1141193;-77
2022/06/30 19:29:23;;;;;;;31.97;17.75;;;;;;;27.14;79.88;100330.87;5046549;57;1141070;-77
2022/06/30 19:34:29;;;;;;;35.88;17.10;;;;;;;27.13;80.63;100340.91;5071144;57;1141414;-77
2022/06/30 19:39:34;;;;;;;20.30;14.45;;;;;;;27.15;80.92;100352.36;5052159;57;1141144;-77
2022/06/30 19:44:40;;;;;;;21.45;16.77;;;;;;;27.13;81.17;100350.41;4979045;58;1141087;-78
2022/06/30 19:49:46;;;;;;;19.50;15.08;;;;;;;27.02;81.62;100355.80;4980085;58;1141384;-78
2022/06/30 19:54:52;;;;;;;19.17;13.83;;;;;;;26.89;82.12;100367.08;5046761;58;1141110;-77
2022/06/30 19:59:57;;;;;;;14.80;12.28;;;;;;;26.80;82.73;100376.61;5047815;58;1141117;-77
2022/06/30 20:05:03;;;;;;;18.40;14.03;;;;;;;26.72;83.03;100391.03;5047912;58;1141647;-78
2022/06/30 20:15:33;;;;;;;18.48;12.45;;;;;;;26.64;84.40;100397.58;5048477;58;1141116;-77
2022/06/30 20:20:39;;;;;;;12.68;11.57;;;;;;;26.49;84.34;100384.92;5050636;57;1141118;-76
2022/06/30 20:25:46;;;;;;;14.30;12.95;;;;;;;26.40;84.62;100378.98;5044345;57;1141134;-78
2022/06/30 20:30:51;;;;;;;35.55;28.57;;;;;;;26.41;85.70;100378.46;5008052;58;1139195;-78
2022/06/30 20:35:57;;;;;;;22.22;17.92;;;;;;;26.40;85.42;100377.62;5030691;57;1139350;-77
2022/06/30 20:41:04;;;;;;;21.35;18.92;;;;;;;26.31;84.86;100384.39;5044282;57;1143463;-77
2022/06/30 20:46:09;;;;;;;19.80;15.27;;;;;;;26.08;85.02;100383.66;5015826;57;1143414;-78
2022/06/30 20:51:35;;;;;;;20.70;16.27;;;;;;;25.85;85.17;100382.09;4963060;59;1143272;-77
2022/06/30 20:56:40;;;;;;;24.55;20.05;;;;;;;25.73;86.40;100385.23;5032269;58;1143484;-78
2022/06/30 21:01:46;;;;;;;50.35;35.80;;;;;;;25.77;86.76;100394.58;4985636;58;1143301;-78
2022/06/30 21:06:52;;;;;;;60.60;41.35;;;;;;;25.80;86.65;100388.20;4991253;58;1143159;-77
2022/06/30 21:11:58;;;;;;;26.10;21.80;;;;;;;25.75;86.63;100392.09;4962375;58;1143058;-78
2022/06/30 21:17:04;;;;;;;22.98;19.80;;;;;;;25.64;86.04;100388.75;4965200;58;1143393;-79
2022/06/30 21:22:10;;;;;;;19.87;17.80;;;;;;;25.61;86.86;100400.52;4962028;58;1143419;-79
2022/06/30 21:27:16;;;;;;;23.05;20.65;;;;;;;25.65;86.91;100401.77;4904308;58;1143229;-79
2022/06/30 21:32:22;;;;;;;35.55;25.85;;;;;;;25.37;86.27;100394.00;4953066;59;1143315;-79
2022/06/30 21:37:28;;;;;;;32.13;25.92;;;;;;;25.11;87.03;100387.71;4963091;59;1143396;-77
2022/06/30 21:42:34;;;;;;;32.03;23.12;;;;;;;25.13;87.91;100388.85;5005341;59;1142799;-79
2022/06/30 21:47:40;;;;;;;28.42;20.20;;;;;;;25.14;88.58;100406.75;4926390;58;1143313;-77
2022/06/30 21:52:45;;;;;;;29.65;19.60;;;;;;;25.14;88.94;100403.52;4884314;59;1142803;-79
2022/06/30 21:57:52;;;;;;;35.60;21.70;;;;;;;25.11;88.64;100400.41;4884792;59;1143143;-77
2022/06/30 22:02:59;;;;;;;22.58;20.17;;;;;;;25.12;89.06;100400.72;4884815;59;1143141;-77
2022/06/30 22:08:05;;;;;;;26.80;20.88;;;;;;;25.04;89.52;100406.40;4917678;58;1143419;-77
2022/06/30 22:13:12;;;;;;;28.10;21.68;;;;;;;25.01;89.36;100394.13;4970597;58;1143225;-78
2022/06/30 22:18:18;;;;;;;21.42;18.82;;;;;;;24.96;89.84;100396.64;5011182;58;1143085;-78
2022/06/30 22:23:24;;;;;;;18.45;16.65;;;;;;;24.92;90.11;100388.61;4964745;59;1143443;-76
2022/06/30 22:28:30;;;;;;;18.73;16.82;;;;;;;24.86;89.84;100384.91;4962937;58;1143155;-77
2022/06/30 22:33:36;;;;;;;17.48;15.78;;;;;;;24.84;89.96;100388.87;4984555;58;1143146;-78
2022/06/30 22:38:41;;;;;;;20.48;17.75;;;;;;;24.63;89.73;100379.16;5014277;58;1143134;-78
2022/06/30 22:43:49;;;;;;;17.02;15.30;;;;;;;24.63;91.01;100371.57;5008185;58;1143326;-78
2022/06/30 22:48:54;;;;;;;18.40;16.42;;;;;;;24.63;91.03;100369.70;5008496;58;1143203;-77
2022/06/30 22:54:01;;;;;;;17.82;15.85;;;;;;;24.64;91.30;100365.95;5014615;58;1143166;-77
2022/06/30 22:59:11;;;;;;;19.87;16.97;;;;;;;24.54;91.00;100365.59;4998144;58;1143420;-78
2022/06/30 23:04:17;;;;;;;18.15;16.20;;;;;;;24.30;90.54;100366.27;5012527;58;1143099;-77
2022/06/30 23:09:23;;;;;;;17.27;15.32;;;;;;;24.33;92.23;100373.96;5008744;58;1143366;-76
2022/06/30 23:14:29;;;;;;;18.65;16.80;;;;;;;24.35;92.50;100368.66;5002891;58;1143086;-78
2022/06/30 23:19:34;;;;;;;17.77;15.78;;;;;;;24.36;92.55;100366.78;5016337;58;1143137;-78
2022/06/30 23:24:41;;;;;;;16.93;15.15;;;;;;;24.40;92.48;100359.92;5014241;58;1143132;-77
2022/06/30 23:29:46;;;;;;;18.48;16.40;;;;;;;24.37;91.95;100339.54;4979477;58;1143170;-78
2022/06/30 23:34:52;;;;;;;17.75;15.70;;;;;;;24.15;91.82;100351.62;5019609;58;1143148;-78
2022/06/30 23:39:58;;;;;;;25.62;15.88;;;;;;;24.16;92.97;100351.93;5008868;58;1141108;-79